Time;durP1;ratioP1;P1;durP2;ratioP2;P2;SDS_P1;SDS_P2;PMS_P1;PMS_P2;Temp;Humidity;BMP_temperature;BMP_pressure;BME280_temperature;BME280_humidity;BME280_pressure;Samples;Min_cycle;Max_cycle;Signal;HPM_P1;HPM_P2
2023/09/26 00:01:57;;;;;;;;;;;;;;;13.09;100.00;102243.16;4984735;28;19936;-92
2023/09/26 00:04:42;;;;;;;;;;;;;;;13.07;100.00;102237.91;4987420;28;19984;-94
2023/09/26 00:07:30;;;;;;;;;;;;;;;13.08;100.00;102236.13;4965871;28;19926;-94
2023/09/26 00:10:18;;;;;;;;;;;;;;;13.04;100.00;102233.56;4961405;28;20354;-93
2023/09/26 00:13:04;;;;;;;;;;;;;;;13.05;100.00;102226.47;4985095;28;20053;-93
2023/09/26 00:15:50;;;;;;;;;;;;;;;13.04;100.00;102232.69;4983187;28;20509;-92
2023/09/26 00:18:35;;;;;;;;;;;;;;;13.03;100.00;102234.47;4980875;28;20433;-92
2023/09/26 00:21:21;;;;;;;;;;;;;;;13.07;100.00;102237.03;4953552;28;21507;-93
2023/09/26 00:24:07;;;;;;;;;;;;;;;13.11;100.00;102231.56;4980200;28;20370;-93
2023/09/26 00:26:55;;;;;;;;;;;;;;;13.14;100.00;102234.09;4966011;28;19956;-91
2023/09/26 00:29:41;;;;;;;;;;;;;;;13.17;100.00;102228.69;4958844;28;19925;-91
2023/09/26 00:32:26;;;;;;;;;;;;;;;13.18;100.00;102227.78;4966823;28;20185;-92
2023/09/26 00:35:13;;;;;;;;;;;;;;;13.21;100.00;102233.91;4952709;28;19938;-93
2023/09/26 00:37:58;;;;;;;;;;;;;;;13.21;100.00;102249.84;4952462;28;21087;-91
2023/09/26 00:40:47;;;;;;;;;;;;;;;13.20;100.00;102254.31;4962375;28;20883;-92
2023/09/26 00:43:32;;;;;;;;;;;;;;;13.18;100.00;102232.22;4965149;28;20024;-92
2023/09/26 00:46:18;;;;;;;;;;;;;;;13.16;100.00;102220.78;4960659;28;19949;-93
2023/09/26 00:49:04;;;;;;;;;;;;;;;13.14;100.00;102204.84;4958258;28;20392;-92
2023/09/26 00:51:49;;;;;;;;;;;;;;;13.12;100.00;102193.41;4980646;28;19926;-93
2023/09/26 00:54:38;;;;;;;;;;;;;;;13.10;100.00;102216.53;4967789;28;19944;-92
2023/09/26 00:57:24;;;;;;;;;;;;;;;13.08;100.00;102213.03;4976898;28;19953;-92
2023/09/26 01:00:12;;;;;;;;;;;;;;;13.07;100.00;102213.13;4978552;28;19930;-91
2023/09/26 01:02:58;;;;;;;;;;;;;;;13.05;100.00;102223.81;4984552;28;21363;-91
2023/09/26 01:05:44;;;;;;;;;;;;;;;13.05;100.00;102231.78;4961921;28;20040;-88
2023/09/26 01:08:30;;;;;;;;;;;;;;;13.06;100.00;102230.00;4976261;28;20305;-88
2023/09/26 01:11:18;;;;;;;;;;;;;;;13.03;100.00;102228.31;4959167;28;19937;-90
2023/09/26 01:14:04;;;;;;;;;;;;;;;13.03;100.00;102229.16;4970259;28;19973;-92
2023/09/26 01:16:54;;;;;;;;;;;;;;;13.01;100.00;102223.03;4968274;28;20189;-91
2023/09/26 01:19:40;;;;;;;;;;;;;;;12.96;100.00;102211.69;4957124;28;19930;-90
2023/09/26 01:22:26;;;;;;;;;;;;;;;12.93;100.00;102206.47;4968795;28;19937;-92
2023/09/26 01:25:13;;;;;;;;;;;;;;;12.90;100.00;102215.41;4967452;28;19929;-92
2023/09/26 01:28:04;;;;;;;;;;;;;;;12.87;100.00;102210.19;4957439;28;20081;-92
2023/09/26 01:30:53;;;;;;;;;;;;;;;12.85;100.00;102212.03;4981008;28;20304;-91
2023/09/26 01:33:44;;;;;;;;;;;;;;;12.83;100.00;102213.91;4966263;28;19936;-92
2023/09/26 01:36:33;;;;;;;;;;;;;;;12.84;100.00;102212.97;4950341;28;19945;-88
2023/09/26 01:39:18;;;;;;;;;;;;;;;12.86;100.00;102208.47;4959294;28;19936;-93
2023/09/26 01:42:04;;;;;;;;;;;;;;;12.86;100.00;102213.78;4981246;28;19942;-91
2023/09/26 01:44:49;;;;;;;;;;;;;;;12.85;100.00;102212.03;4981505;28;19930;-92
2023/09/26 01:47:43;;;;;;;;;;;;;;;12.82;100.00;102217.47;4981515;28;19973;-91
2023/09/26 01:50:28;;;;;;;;;;;;;;;12.79;100.00;102211.41;4973482;28;19933;-89
2023/09/26 01:53:17;;;;;;;;;;;;;;;12.73;100.00;102210.66;4978319;28;19926;-93
2023/09/26 01:56:02;;;;;;;;;;;;;;;12.69;100.00;102205.50;4975100;28;19925;-90
2023/09/26 01:58:50;;;;;;;;;;;;;;;12.67;100.00;102204.66;4962352;28;20025;-90
2023/09/26 02:01:36;;;;;;;;;;;;;;;12.66;100.00;102194.97;4981137;28;19992;-88
2023/09/26 02:04:22;;;;;;;;;;;;;;;12.63;100.00;102188.84;4980954;28;20377;-89
2023/09/26 02:07:07;;;;;;;;;;;;;;;12.63;100.00;102185.31;4974262;28;19934;-87
2023/09/26 02:09:53;;;;;;;;;;;;;;;12.60;100.00;102188.06;4957705;28;19941;-89
2023/09/26 02:12:42;;;;;;;;;;;;;;;12.57;100.00;102183.72;4977195;28;19944;-91
2023/09/26 02:15:27;;;;;;;;;;;;;;;12.55;100.00;102192.66;4981082;28;19969;-91
2023/09/26 02:18:16;;;;;;;;;;;;;;;12.52;100.00;102198.09;4962565;28;19929;-88
2023/09/26 02:21:01;;;;;;;;;;;;;;;12.48;100.00;102184.03;4979105;28;19930;-92
2023/09/26 02:23:47;;;;;;;;;;;;;;;12.46;100.00;102180.53;4981797;28;20290;-91
2023/09/26 02:26:33;;;;;;;;;;;;;;;12.44;100.00;102177.06;4969589;28;19934;-92
2023/09/26 02:29:19;;;;;;;;;;;;;;;12.42;100.00;102176.25;4959308;28;19982;-90
2023/09/26 02:32:05;;;;;;;;;;;;;;;12.38;100.00;102178.16;4950470;28;20211;-88
2023/09/26 02:34:50;;;;;;;;;;;;;;;12.36;100.00;102183.50;4954522;28;19993;-91
2023/09/26 02:37:36;;;;;;;;;;;;;;;12.35;100.00;102181.78;4951959;28;19926;-91
2023/09/26 02:40:27;;;;;;;;;;;;;;;12.36;100.00;102180.84;4953643;28;19976;-88
2023/09/26 02:43:13;;;;;;;;;;;;;;;12.42;100.00;102184.22;4958338;28;19934;-89
2023/09/26 02:45:58;;;;;;;;;;;;;;;12.45;100.00;102181.47;4975330;28;19926;-87
2023/09/26 02:48:44;;;;;;;;;;;;;;;12.47;100.00;102174.31;4979113;28;19973;-90
2023/09/26 02:51:32;;;;;;;;;;;;;;;12.49;100.00;102169.84;4980390;28;19997;-93
2023/09/26 02:54:18;;;;;;;;;;;;;;;12.49;100.00;102175.16;4977515;28;19984;-89
2023/09/26 02:57:03;;;;;;;;;;;;;;;12.47;100.00;102179.63;4968118;28;19944;-91
2023/09/26 02:59:49;;;;;;;;;;;;;;;12.48;100.00;102173.41;4968034;28;19989;-89
2023/09/26 03:02:35;;;;;;;;;;;;;;;12.49;100.00;102169.84;4967680;28;20823;-90
2023/09/26 03:05:20;;;;;;;;;;;;;;;12.48;100.00;102171.59;4960927;28;19934;-91
2023/09/26 03:08:06;;;;;;;;;;;;;;;12.48;100.00;102165.44;4966413;28;20135;-91
2023/09/26 03:10:57;;;;;;;;;;;;;;;12.48;100.00;102155.66;4971175;28;19927;-91
2023/09/26 03:13:46;;;;;;;;;;;;;;;12.49;100.00;102156.56;4969315;28;20060;-91
2023/09/26 03:16:31;;;;;;;;;;;;;;;12.49;100.00;102157.41;4962282;28;19918;-91
2023/09/26 03:19:23;;;;;;;;;;;;;;;12.47;100.00;102156.59;4961962;28;20140;-91
2023/09/26 03:22:09;;;;;;;;;;;;;;;12.47;100.00;102158.38;4968647;28;19980;-90
2023/09/26 03:24:55;;;;;;;;;;;;;;;12.45;100.00;102161.09;4963527;28;19941;-91
2023/09/26 03:27:41;;;;;;;;;;;;;;;12.42;100.00;102149.72;4970401;28;19934;-90
2023/09/26 03:30:27;;;;;;;;;;;;;;;12.41;100.00;102155.94;4961906;28;19936;-93
2023/09/26 03:33:13;;;;;;;;;;;;;;;12.39;100.00;102153.31;4986527;28;19940;-93
2023/09/26 03:35:59;;;;;;;;;;;;;;;12.38;100.00;102153.38;4983861;28;19940;-92
2023/09/26 03:38:45;;;;;;;;;;;;;;;12.34;100.00;102153.47;4971906;28;20327;-92
2023/09/26 03:41:31;;;;;;;;;;;;;;;12.31;100.00;102152.72;4990301;28;20442;-92
2023/09/26 03:44:19;;;;;;;;;;;;;;;12.28;100.00;102144.81;4970430;28;19980;-91
2023/09/26 03:47:07;;;;;;;;;;;;;;;12.25;100.00;102148.44;4984897;28;19932;-92
2023/09/26 03:49:53;;;;;;;;;;;;;;;12.22;100.00;102145.91;4985173;28;19980;-90
2023/09/26 03:52:38;;;;;;;;;;;;;;;12.20;100.00;102139.78;4976928;28;19937;-91
2023/09/26 03:55:24;;;;;;;;;;;;;;;12.18;100.00;102133.63;4980783;28;19933;-92
2023/09/26 03:58:10;;;;;;;;;;;;;;;12.17;100.00;102126.59;4961185;28;19980;-91
2023/09/26 04:00:58;;;;;;;;;;;;;;;12.16;100.00;102130.16;4959604;28;19926;-92
2023/09/26 04:03:46;;;;;;;;;;;;;;;12.15;100.00;102125.78;4991069;28;19962;-93
2023/09/26 04:06:32;;;;;;;;;;;;;;;12.16;100.00;102135.47;4987013;28;20051;-92
2023/09/26 04:09:18;;;;;;;;;;;;;;;12.15;100.00;102133.75;4970201;28;19937;-90
2023/09/26 04:12:03;;;;;;;;;;;;;;;12.14;100.00;102135.50;4972976;28;20381;-91
2023/09/26 04:14:49;;;;;;;;;;;;;;;12.13;100.00;102139.09;4971544;28;19937;-87
2023/09/26 04:17:35;;;;;;;;;;;;;;;12.12;100.00;102137.34;4970439;28;20366;-91
2023/09/26 04:20:22;;;;;;;;;;;;;;;12.14;100.00;102134.66;4960232;28;19936;-90
2023/09/26 04:23:08;;;;;;;;;;;;;;;12.13;100.00;102127.59;4963715;28;19926;-92
2023/09/26 04:25:54;;;;;;;;;;;;;;;12.11;100.00;102122.34;4980163;28;19986;-88
2023/09/26 04:28:40;;;;;;;;;;;;;;;12.09;100.00;102117.06;4957037;28;19941;-90
2023/09/26 04:31:26;;;;;;;;;;;;;;;12.11;100.00;102118.81;4956128;28;20282;-91
2023/09/26 04:34:12;;;;;;;;;;;;;;;12.11;100.00;102111.72;4964890;28;19930;-92
2023/09/26 04:36:57;;;;;;;;;;;;;;;12.10;100.00;102110.00;4975656;28;20016;-91
2023/09/26 04:39:43;;;;;;;;;;;;;;;12.10;100.00;102107.34;4963581;28;19921;-91
2023/09/26 04:42:32;;;;;;;;;;;;;;;12.09;100.00;102097.63;4976212;28;19930;-90
2023/09/26 04:45:17;;;;;;;;;;;;;;;12.09;100.00;102089.66;4971400;28;19969;-89
2023/09/26 04:48:03;;;;;;;;;;;;;;;12.07;100.00;102092.38;4961942;28;19983;-88
2023/09/26 04:50:49;;;;;;;;;;;;;;;12.07;100.00;102096.81;4968614;28;19932;-88
2023/09/26 04:53:35;;;;;;;;;;;;;;;12.07;100.00;102094.16;4964942;28;20320;-88
2023/09/26 04:56:21;;;;;;;;;;;;;;;12.06;100.00;102089.75;4970113;28;19936;-90
2023/09/26 04:59:06;;;;;;;;;;;;;;;12.04;100.00;102084.50;4974181;28;20269;-91
2023/09/26 05:01:54;;;;;;;;;;;;;;;12.03;100.00;102082.75;4966873;28;19926;-90
2023/09/26 05:04:41;;;;;;;;;;;;;;;12.00;100.00;102080.19;4985620;28;19993;-92
2023/09/26 05:07:27;;;;;;;;;;;;;;;11.99;100.00;102088.19;4965978;28;19980;-92
2023/09/26 05:10:13;;;;;;;;;;;;;;;11.97;100.00;102093.53;4969359;28;19925;-92
2023/09/26 05:12:59;;;;;;;;;;;;;;;11.94;100.00;102091.00;4962089;28;19961;-93
2023/09/26 05:15:44;;;;;;;;;;;;;;;11.92;100.00;102092.81;4971120;28;19961;-92
2023/09/26 05:18:35;;;;;;;;;;;;;;;11.89;100.00;102083.19;4971150;28;19933;-92
2023/09/26 05:21:21;;;;;;;;;;;;;;;11.88;100.00;102092.03;4960632;28;19925;-91
2023/09/26 05:24:10;;;;;;;;;;;;;;;11.87;100.00;102092.94;4967352;28;19945;-91
2023/09/26 05:27:04;;;;;;;;;;;;;;;11.87;100.00;102086.78;4956080;28;19937;-88
2023/09/26 05:29:52;;;;;;;;;;;;;;;11.85;100.00;102086.84;4964674;28;19934;-91
2023/09/26 05:32:38;;;;;;;;;;;;;;;11.85;100.00;102086.84;4957936;28;19926;-91
2023/09/26 05:35:23;;;;;;;;;;;;;;;11.86;100.00;102093.00;4967000;28;20029;-90
2023/09/26 05:38:15;;;;;;;;;;;;;;;11.87;100.00;102097.41;4958702;28;19930;-90
2023/09/26 05:41:01;;;;;;;;;;;;;;;11.88;100.00;102120.38;4962370;28;19937;-89
2023/09/26 05:43:46;;;;;;;;;;;;;;;11.91;100.00;102117.63;4963213;28;19984;-89
2023/09/26 05:46:34;;;;;;;;;;;;;;;11.91;100.00;102120.25;4955855;28;19925;-89
2023/09/26 05:49:22;;;;;;;;;;;;;;;11.94;100.00;102120.19;4965523;28;19961;-90
2023/09/26 05:52:07;;;;;;;;;;;;;;;11.97;100.00;102116.56;4956700;28;20380;-88
2023/09/26 05:54:53;;;;;;;;;;;;;;;12.00;100.00;102125.31;4978186;28;19957;-91
2023/09/26 05:57:40;;;;;;;;;;;;;;;12.04;100.00;102123.47;4957426;28;20412;-90
2023/09/26 06:00:26;;;;;;;;;;;;;;;12.08;100.00;102125.97;4961632;28;19929;-90
2023/09/26 06:03:11;;;;;;;;;;;;;;;12.12;100.00;102131.16;4968329;28;19938;-91
2023/09/26 06:05:57;;;;;;;;;;;;;;;12.16;100.00;102132.81;4977990;28;20832;-90
2023/09/26 06:08:43;;;;;;;;;;;;;;;12.20;100.00;102123.84;4955518;28;19933;-89
2023/09/26 06:11:29;;;;;;;;;;;;;;;12.23;100.00;102123.72;4961500;28;20109;-89
2023/09/26 06:14:15;;;;;;;;;;;;;;;12.26;100.00;102122.78;4961410;28;19937;-89
2023/09/26 06:17:04;;;;;;;;;;;;;;;12.29;100.00;102110.25;4949287;28;19934;-88
2023/09/26 06:19:57;;;;;;;;;;;;;;;12.33;100.00;102116.34;4959356;28;20543;-89
2023/09/26 06:22:43;;;;;;;;;;;;;;;12.36;100.00;102109.16;4969836;28;19957;-87
2023/09/26 06:25:28;;;;;;;;;;;;;;;12.41;100.00;102108.13;4960293;28;21780;-88
2023/09/26 06:28:14;;;;;;;;;;;;;;;12.44;100.00;102108.91;4965839;28;20529;-90
2023/09/26 06:31:04;;;;;;;;;;;;;;;12.48;100.00;102107.00;4961861;28;20039;-90
2023/09/26 06:33:50;;;;;;;;;;;;;;;12.54;100.00;102113.91;4957178;28;20366;-92
2023/09/26 06:36:38;;;;;;;;;;;;;;;12.59;100.00;102118.13;4950450;28;20306;-92
2023/09/26 06:39:24;;;;;;;;;;;;;;;12.62;100.00;102119.81;4959026;28;19925;-90
2023/09/26 06:42:10;;;;;;;;;;;;;;;12.65;100.00;102119.72;4951060;28;19936;-90
2023/09/26 06:44:55;;;;;;;;;;;;;;;12.69;100.00;102115.19;4949251;28;19952;-90
2023/09/26 06:47:41;;;;;;;;;;;;;;;12.71;100.00;102108.00;4946602;28;19933;-89
2023/09/26 06:50:26;;;;;;;;;;;;;;;12.74;100.00;102105.22;4962027;28;20272;-90
2023/09/26 06:53:15;;;;;;;;;;;;;;;12.79;100.00;102105.09;4956717;28;19977;-89
2023/09/26 06:56:02;;;;;;;;;;;;;;;12.82;100.00;102119.16;4961772;28;20020;-89
2023/09/26 06:58:47;;;;;;;;;;;;;;;12.84;100.00;102119.94;4949099;28;19926;-89
2023/09/26 07:01:33;;;;;;;;;;;;;;;12.88;100.00;102120.72;4957110;28;19930;-89
2023/09/26 07:04:18;;;;;;;;;;;;;;;12.92;100.00;102117.03;4946248;28;20419;-88
2023/09/26 07:07:04;;;;;;;;;;;;;;;12.97;100.00;102116.88;4950314;28;19933;-88
2023/09/26 07:09:50;;;;;;;;;;;;;;;13.02;100.00;102112.25;4948579;28;20018;-90
2023/09/26 07:12:37;;;;;;;;;;;;;;;13.06;100.00;102110.38;4971935;28;19952;-88
2023/09/26 07:15:25;;;;;;;;;;;;;;;13.10;100.00;102104.88;4942978;28;20969;-89
2023/09/26 07:18:11;;;;;;;;;;;;;;;13.14;100.00;102109.13;4947789;28;19930;-90
2023/09/26 07:20:59;;;;;;;;;;;;;;;13.18;100.00;102113.44;4973159;28;19953;-83
2023/09/26 07:23:45;;;;;;;;;;;;;;;13.21;100.00;102112.47;4957098;28;19934;-88
2023/09/26 07:26:34;;;;;;;;;;;;;;;13.26;100.00;102107.84;4943860;28;20210;-86
2023/09/26 07:29:23;;;;;;;;;;;;;;;13.30;100.00;102113.91;4958095;28;20433;-86
2023/09/26 07:32:09;;;;;;;;;;;;;;;13.36;100.00;102113.69;4958283;28;21913;-86
2023/09/26 07:34:57;;;;;;;;;;;;;;;13.40;100.00;102109.13;4958078;28;21846;-84
2023/09/26 07:37:43;;;;;;;;;;;;;;;13.45;100.00;102107.13;4959328;28;20373;-84
2023/09/26 07:40:28;;;;;;;;;;;;;;;13.48;100.00;102107.06;4971048;28;19930;-83
2023/09/26 07:43:14;;;;;;;;;;;;;;;13.52;100.00;102110.50;4964174;28;19930;-82
2023/09/26 07:46:09;;;;;;;;;;;;;;;13.57;100.00;102108.53;4974373;28;19986;-82
2023/09/26 07:48:54;;;;;;;;;;;;;;;13.63;100.00;102116.28;4966268;28;20004;-82
2023/09/26 07:51:40;;;;;;;;;;;;;;;13.71;100.00;102122.16;4965234;28;19930;-83
2023/09/26 07:54:26;;;;;;;;;;;;;;;13.81;100.00;102120.03;4952581;28;20461;-82
2023/09/26 07:57:14;;;;;;;;;;;;;;;13.88;100.00;102111.78;4972000;28;19937;-81
2023/09/26 08:00:00;;;;;;;;;;;;;;;13.94;100.00;102117.72;4955568;28;19926;-81
2023/09/26 08:02:45;;;;;;;;;;;;;;;13.97;100.00;102117.63;4975445;28;19930;-83
2023/09/26 08:05:31;;;;;;;;;;;;;;;13.98;100.00;102118.47;4962690;28;20990;-82
2023/09/26 08:08:17;;;;;;;;;;;;;;;13.99;100.00;102117.53;4963327;28;19925;-83
2023/09/26 08:11:06;;;;;;;;;;;;;;;14.02;100.00;102124.53;4962533;28;19930;-82
2023/09/26 08:13:52;;;;;;;;;;;;;;;14.07;100.00;102118.13;4959481;28;19944;-82
2023/09/26 08:16:37;;;;;;;;;;;;;;;14.12;100.00;102120.59;4975581;28;19956;-82
2023/09/26 08:19:23;;;;;;;;;;;;;;;14.16;100.00;102111.53;4975317;28;20290;-83
2023/09/26 08:22:11;;;;;;;;;;;;;;;14.20;100.00;102115.81;4973841;28;19993;-82
2023/09/26 08:24:57;;;;;;;;;;;;;;;14.22;100.00;102110.44;4973792;28;20067;-82
2023/09/26 08:27:42;;;;;;;;;;;;;;;14.23;100.00;102113.03;4976745;28;19929;-82
2023/09/26 08:30:28;;;;;;;;;;;;;;;14.25;100.00;102100.53;4962277;28;19930;-83
2023/09/26 08:33:13;;;;;;;;;;;;;;;14.26;100.00;102096.94;4965833;28;20373;-83
2023/09/26 08:35:59;;;;;;;;;;;;;;;14.32;100.00;102103.78;4948423;28;19957;-85
2023/09/26 08:38:45;;;;;;;;;;;;;;;14.41;100.00;102099.88;4947914;28;20633;-84
2023/09/26 08:41:32;;;;;;;;;;;;;;;14.55;100.00;102106.44;4947958;28;20385;-83
2023/09/26 08:44:18;;;;;;;;;;;;;;;14.64;100.00;102101.59;4951113;28;20027;-85
2023/09/26 08:47:03;;;;;;;;;;;;;;;14.72;100.00;102095.06;4961750;28;19976;-83
2023/09/26 08:49:50;;;;;;;;;;;;;;;14.76;100.00;102092.22;4950790;28;19930;-84
2023/09/26 08:52:36;;;;;;;;;;;;;;;14.78;100.00;102092.16;4960098;28;19934;-82
2023/09/26 08:55:24;;;;;;;;;;;;;;;14.78;100.00;102102.81;4960881;28;19930;-83
2023/09/26 08:58:10;;;;;;;;;;;;;;;14.79;100.00;102108.09;4965383;28;20048;-83
2023/09/26 09:00:58;;;;;;;;;;;;;;;14.84;100.00;102104.34;4963398;28;19930;-82
2023/09/26 09:03:43;;;;;;;;;;;;;;;14.87;100.00;102097.06;4977065;28;19926;-83
2023/09/26 09:06:29;;;;;;;;;;;;;;;14.90;100.00;102101.41;4975313;28;19930;-84
2023/09/26 09:09:15;;;;;;;;;;;;;;;14.96;100.00;102092.28;4975362;28;20317;-83
2023/09/26 09:12:00;;;;;;;;;;;;;;;15.02;100.00;102092.00;4974185;28;20008;-84
2023/09/26 09:14:46;;;;;;;;;;;;;;;15.09;100.00;102092.59;4967583;28;20271;-84
2023/09/26 09:17:38;;;;;;;;;;;;;;;15.11;100.00;102088.06;4950130;28;19930;-84
2023/09/26 09:20:29;;;;;;;;;;;;;;;15.15;100.00;102084.34;4958470;28;19930;-83
2023/09/26 09:23:17;;;;;;;;;;;;;;;15.18;100.00;102071.72;4957214;28;19937;-83
2023/09/26 09:26:10;;;;;;;;;;;;;;;15.23;100.00;102076.84;4968870;28;19948;-84
2023/09/26 09:28:58;;;;;;;;;;;;;;;15.28;100.00;102073.97;4972944;28;19933;-83
2023/09/26 09:31:44;;;;;;;;;;;;;;;15.33;100.00;102070.16;4941802;28;19934;-83
2023/09/26 09:34:31;;;;;;;;;;;;;;;15.38;100.00;102077.06;4960384;28;20206;-85
2023/09/26 09:37:18;;;;;;;;;;;;;;;15.39;100.00;102069.00;4965125;28;21848;-85
2023/09/26 09:40:08;;;;;;;;;;;;;;;15.40;100.00;102067.19;4956667;28;19926;-84
2023/09/26 09:42:55;;;;;;;;;;;;;;;15.43;100.00;102067.91;4973941;28;19979;-84
2023/09/26 09:45:41;;;;;;;;;;;;;;;15.46;100.00;102062.44;4958456;28;19926;-85
2023/09/26 09:48:27;;;;;;;;;;;;;;;15.47;100.00;102055.28;4974996;28;20243;-83
2023/09/26 09:51:13;;;;;;;;;;;;;;;15.52;100.00;102061.28;4957321;28;20409;-84
2023/09/26 09:54:01;;;;;;;;;;;;;;;15.57;100.00;102055.72;4969736;28;19926;-83
2023/09/26 09:56:49;;;;;;;;;;;;;;;15.61;100.00;102065.31;4956345;28;20423;-84
2023/09/26 09:59:38;;;;;;;;;;;;;;;15.67;100.00;102056.16;4965610;28;20408;-85
2023/09/26 10:02:24;;;;;;;;;;;;;;;15.71;100.00;102055.94;4955741;28;20285;-83
2023/09/26 10:05:12;;;;;;;;;;;;;;;15.77;100.00;102044.09;4953352;28;20033;-85
2023/09/26 10:07:58;;;;;;;;;;;;;;;15.83;100.00;102051.81;4965225;28;19926;-84
2023/09/26 10:10:44;;;;;;;;;;;;;;;15.88;100.00;102052.47;4957724;28;20494;-84
2023/09/26 10:13:32;;;;;;;;;;;;;;;15.95;100.00;102050.38;4946587;28;20081;-83
2023/09/26 10:16:19;;;;;;;;;;;;;;;16.03;100.00;102052.69;4955553;28;19992;-84
2023/09/26 10:19:05;;;;;;;;;;;;;;;16.10;100.00;102056.78;4943499;28;19945;-84
2023/09/26 10:21:52;;;;;;;;;;;;;;;16.17;100.00;102051.13;4957469;28;20287;-85
2023/09/26 10:24:48;;;;;;;;;;;;;;;16.26;100.00;102042.63;4956515;28;19948;-86
2023/09/26 10:27:38;;;;;;;;;;;;;;;16.34;100.00;102043.09;4939546;28;19921;-85
2023/09/26 10:30:24;;;;;;;;;;;;;;;16.40;100.00;102034.78;4967235;28;19934;-85
2023/09/26 10:33:12;;;;;;;;;;;;;;;16.48;100.00;102030.84;4956081;28;20366;-86
2023/09/26 10:36:02;;;;;;;;;;;;;;;16.53;100.00;102026.13;4967255;28;20060;-84
2023/09/26 10:39:17;;;;;;;;;;;;;;;16.57;100.00;102022.38;4940594;28;19965;-84
2023/09/26 10:42:12;;;;;;;;;;;;;;;16.62;100.00;102020.28;4964026;28;19926;-84
2023/09/26 10:44:57;;;;;;;;;;;;;;;16.65;100.00;102014.78;4954342;28;19958;-84
2023/09/26 10:47:44;;;;;;;;;;;;;;;16.68;100.00;102013.78;4952146;28;19934;-85
2023/09/26 10:50:29;;;;;;;;;;;;;;;16.70;100.00;102020.78;4968312;28;20497;-84
2023/09/26 10:53:18;;;;;;;;;;;;;;;16.74;100.00;102023.28;4941976;28;19977;-85
2023/09/26 10:56:04;;;;;;;;;;;;;;;16.80;100.00;102023.81;4938599;28;19992;-84
2023/09/26 10:58:52;;;;;;;;;;;;;;;16.87;100.00;102019.00;4956110;28;20308;-85
2023/09/26 11:01:38;;;;;;;;;;;;;;;16.96;100.00;102005.13;4967077;28;19938;-84
2023/09/26 11:04:27;;;;;;;;;;;;;;;17.05;100.00;102010.97;4953541;28;19925;-85
2023/09/26 11:07:12;;;;;;;;;;;;;;;17.16;100.00;102008.53;4956599;28;19980;-83
2023/09/26 11:09:58;;;;;;;;;;;;;;;17.33;100.00;102010.28;4956942;28;20445;-84
2023/09/26 11:12:44;;;;;;;;;;;;;;;17.50;100.00;101998.63;4957209;28;19993;-84
2023/09/26 11:15:32;;;;;;;;;;;;;;;17.66;100.00;101984.38;4947286;28;19933;-83
2023/09/26 11:18:17;;;;;;;;;;;;;;;17.79;100.00;102000.59;4970526;28;19953;-84
2023/09/26 11:21:03;;;;;;;;;;;;;;;17.84;100.00;101998.53;4956011;28;20411;-86
2023/09/26 11:23:51;;;;;;;;;;;;;;;17.90;100.00;101997.28;4971664;28;19921;-83
2023/09/26 11:26:37;;;;;;;;;;;;;;;17.98;100.00;101994.19;4956574;28;19945;-83
2023/09/26 11:29:23;;;;;;;;;;;;;;;18.00;100.00;102001.19;4973489;28;20282;-84
2023/09/26 11:32:09;;;;;;;;;;;;;;;18.08;100.00;101992.69;4956533;28;20456;-84
2023/09/26 11:34:54;;;;;;;;;;;;;;;18.16;100.00;101993.13;4971205;28;19930;-83
2023/09/26 11:37:43;;;;;;;;;;;;;;;18.20;100.00;101988.44;4957965;28;20011;-85
2023/09/26 11:40:29;;;;;;;;;;;;;;;18.26;100.00;101992.56;4959723;28;19926;-83
2023/09/26 11:43:15;;;;;;;;;;;;;;;18.34;100.00;101989.44;4959714;28;19985;-83
2023/09/26 11:46:02;;;;;;;;;;;;;;;18.46;100.00;101989.53;4973402;28;19933;-83
2023/09/26 11:48:48;;;;;;;;;;;;;;;18.52;100.00;101990.97;4972295;28;19969;-83
2023/09/26 11:51:34;;;;;;;;;;;;;;;18.58;100.00;101987.06;4954281;28;19934;-81
2023/09/26 11:54:20;;;;;;;;;;;;;;;18.67;100.00;101972.22;4980012;28;19941;-85
2023/09/26 11:57:06;;;;;;;;;;;;;;;18.75;100.00;101966.38;4950034;28;19930;-80
2023/09/26 11:59:54;;;;;;;;;;;;;;;18.77;100.00;101970.69;4974206;28;19973;-81
2023/09/26 12:02:42;;;;;;;;;;;;;;;18.80;100.00;101969.63;4973466;28;19938;-81
2023/09/26 12:05:28;;;;;;;;;;;;;;;18.81;100.00;101969.56;4959740;28;19940;-81
2023/09/26 12:08:13;;;;;;;;;;;;;;;18.85;100.00;101967.53;4974577;28;19973;-81
2023/09/26 12:10:59;;;;;;;;;;;;;;;18.89;100.00;101960.16;4959133;28;19945;-80
2023/09/26 12:13:45;;;;;;;;;;;;;;;18.92;100.00;101971.56;4971295;28;20103;-80
2023/09/26 12:16:31;;;;;;;;;;;;;;;18.94;100.00;101972.31;4958061;28;19930;-80
2023/09/26 12:19:19;;;;;;;;;;;;;;;18.95;100.00;101963.28;4974782;28;20061;-80
2023/09/26 12:22:05;;;;;;;;;;;;;;;18.96;100.00;101965.00;4948240;28;20008;-81
2023/09/26 12:24:51;;;;;;;;;;;;;;;18.95;100.00;101965.97;4974313;28;19941;-80
2023/09/26 12:27:37;;;;;;;;;;;;;;;18.99;100.00;101958.59;4973715;28;19922;-80
2023/09/26 12:30:22;;;;;;;;;;;;;;;19.04;100.00;101961.88;4961695;28;19930;-80
2023/09/26 12:33:10;;;;;;;;;;;;;;;19.09;100.00;101965.16;4971480;28;20938;-80
2023/09/26 12:35:58;;;;;;;;;;;;;;;19.14;100.00;101972.91;4957581;28;19981;-80
2023/09/26 12:38:44;;;;;;;;;;;;;;;19.17;100.00;101974.53;4960068;28;20416;-81
2023/09/26 12:41:30;;;;;;;;;;;;;;;19.17;100.00;101969.16;4974694;28;19941;-81
2023/09/26 12:44:16;;;;;;;;;;;;;;;19.15;100.00;101971.94;4972721;28;19926;-81
2023/09/26 12:47:02;;;;;;;;;;;;;;;19.14;100.00;101970.22;4958901;28;19930;-81
2023/09/26 12:49:47;;;;;;;;;;;;;;;19.12;100.00;101964.94;4972196;28;20242;-82
2023/09/26 12:52:40;;;;;;;;;;;;;;;19.13;100.00;101966.66;4957364;28;19926;-82
2023/09/26 12:55:26;;;;;;;;;;;;;;;19.15;100.00;101963.88;4963979;28;20012;-83
2023/09/26 12:58:14;;;;;;;;;;;;;;;19.18;100.00;101954.78;4970298;28;20637;-83
2023/09/26 13:01:03;;;;;;;;;;;;;;;19.21;100.00;101946.50;4960964;28;19949;-82
2023/09/26 13:03:48;;;;;;;;;;;;;;;19.25;100.00;101948.03;4973923;28;19988;-81
2023/09/26 13:06:36;;;;;;;;;;;;;;;19.30;100.00;101951.28;4952981;28;20001;-83
2023/09/26 13:09:22;;;;;;;;;;;;;;;19.32;100.00;101944.00;4971754;28;19934;-81
2023/09/26 13:12:10;;;;;;;;;;;;;;;19.36;100.00;101945.53;4955693;28;20412;-82
2023/09/26 13:15:03;;;;;;;;;;;;;;;19.43;100.00;101945.97;4969291;28;19926;-82
2023/09/26 13:17:51;;;;;;;;;;;;;;;19.53;100.00;101938.16;4969973;28;20495;-82
2023/09/26 13:20:37;;;;;;;;;;;;;;;19.63;100.00;101936.59;4957378;28;19930;-81
2023/09/26 13:23:22;;;;;;;;;;;;;;;19.70;100.00;101946.91;4973540;28;19934;-81
2023/09/26 13:26:36;;;;;;;;;;;;;;;19.74;100.00;101937.69;4961409;28;19930;-81
2023/09/26 13:29:23;;;;;;;;;;;;;;;19.72;100.00;101934.25;4975006;28;19940;-83
2023/09/26 13:32:13;;;;;;;;;;;;;;;19.71;100.00;101935.22;4966354;28;19926;-83
2023/09/26 13:35:06;;;;;;;;;;;;;;;19.74;100.00;101937.69;4960709;28;19937;-83
2023/09/26 13:37:52;;;;;;;;;;;;;;;19.76;100.00;101941.13;4961083;28;20525;-82
2023/09/26 13:40:40;;;;;;;;;;;;;;;19.78;100.00;101939.22;4961377;28;19925;-81
2023/09/26 13:43:25;;;;;;;;;;;;;;;19.78;100.00;101937.38;4975322;28;19941;-81
2023/09/26 13:53:01;;;;;;;;;;;;;;;19.67;100.00;101937.25;4985841;23;20310;-80
2023/09/26 13:55:47;;;;;;;;;;;;;;;19.68;100.00;101928.22;4959771;28;19929;-82
2023/09/26 13:58:33;;;;;;;;;;;;;;;19.72;100.00;101920.81;4954806;28;19942;-83
2023/09/26 14:01:22;;;;;;;;;;;;;;;19.75;100.00;101916.09;4971513;28;19930;-84
2023/09/26 14:04:08;;;;;;;;;;;;;;;19.79;100.00;101922.97;4957317;28;19926;-84
2023/09/26 14:06:54;;;;;;;;;;;;;;;19.84;100.00;101922.69;4968242;28;19968;-83
2023/09/26 14:09:40;;;;;;;;;;;;;;;19.83;100.00;101918.25;4976098;28;20060;-83
2023/09/26 14:12:32;;;;;;;;;;;;;;;19.81;100.00;101923.75;4975192;28;20379;-84
2023/09/26 14:15:22;;;;;;;;;;;;;;;19.79;100.00;101922.13;4975956;28;19949;-83